sensor_id;sensor_type;location;lat;lon;timestamp;temperature;humidity
46085;DHT22;31823;47.032;8.310;2022-12-29T00:01:40;1.80;99.90
46085;DHT22;31823;47.032;8.310;2022-12-29T00:04:06;1.90;99.90
46085;DHT22;31823;47.032;8.310;2022-12-29T00:06:32;1.80;99.90
46085;DHT22;31823;47.032;8.310;2022-12-29T00:08:58;1.90;99.90
46085;DHT22;31823;47.032;8.310;2022-12-29T00:11:25;1.80;99.90
46085;DHT22;31823;47.032;8.310;2022-12-29T00:13:52;1.80;99.90
46085;DHT22;31823;47.032;8.310;2022-12-29T00:16:37;1.80;99.90
46085;DHT22;31823;47.032;8.310;2022-12-29T00:19:03;1.80;99.90
46085;DHT22;31823;47.032;8.310;2022-12-29T00:21:29;1.90;99.90
46085;DHT22;31823;47.032;8.310;2022-12-29T00:24:21;1.90;99.90
46085;DHT22;31823;47.032;8.310;2022-12-29T00:27:10;1.90;99.90
46085;DHT22;31823;47.032;8.310;2022-12-29T00:29:54;2.00;99.90
46085;DHT22;31823;47.032;8.310;2022-12-29T00:32:39;2.00;99.90
46085;DHT22;31823;47.032;8.310;2022-12-29T00:35:33;1.90;99.90
46085;DHT22;31823;47.032;8.310;2022-12-29T00:38:04;2.00;99.90
46085;DHT22;31823;47.032;8.310;2022-12-29T00:40:49;1.90;99.90
46085;DHT22;31823;47.032;8.310;2022-12-29T00:43:33;1.90;99.90
46085;DHT22;31823;47.032;8.310;2022-12-29T00:46:17;2.00;99.90
46085;DHT22;31823;47.032;8.310;2022-12-29T00:48:42;2.00;99.90
46085;DHT22;31823;47.032;8.310;2022-12-29T00:51:27;2.10;99.90
46085;DHT22;31823;47.032;8.310;2022-12-29T00:53:52;2.10;99.90
46085;DHT22;31823;47.032;8.310;2022-12-29T00:56:18;2.10;99.90
46085;DHT22;31823;47.032;8.310;2022-12-29T00:58:43;2.30;99.90
46085;DHT22;31823;47.032;8.310;2022-12-29T01:01:09;2.40;99.90
46085;DHT22;31823;47.032;8.310;2022-12-29T01:03:36;2.50;99.90
46085;DHT22;31823;47.032;8.310;2022-12-29T01:06:09;2.40;99.90
46085;DHT22;31823;47.032;8.310;2022-12-29T01:08:35;2.50;99.90
46085;DHT22;31823;47.032;8.310;2022-12-29T01:11:07;2.50;99.90
46085;DHT22;31823;47.032;8.310;2022-12-29T01:13:33;2.60;99.90
46085;DHT22;31823;47.032;8.310;2022-12-29T01:15:59;2.60;99.90
46085;DHT22;31823;47.032;8.310;2022-12-29T01:18:25;2.70;99.90
46085;DHT22;31823;47.032;8.310;2022-12-29T01:20:51;2.70;99.90
46085;DHT22;31823;47.032;8.310;2022-12-29T01:23:23;2.60;99.90
46085;DHT22;31823;47.032;8.310;2022-12-29T01:25:48;2.60;99.90
46085;DHT22;31823;47.032;8.310;2022-12-29T01:28:14;2.60;99.90
46085;DHT22;31823;47.032;8.310;2022-12-29T01:30:39;2.60;99.90
46085;DHT22;31823;47.032;8.310;2022-12-29T01:33:05;2.50;99.90
46085;DHT22;31823;47.032;8.310;2022-12-29T01:35:30;2.50;99.90
46085;DHT22;31823;47.032;8.310;2022-12-29T01:37:56;2.50;99.90
46085;DHT22;31823;47.032;8.310;2022-12-29T01:40:22;2.60;99.90
46085;DHT22;31823;47.032;8.310;2022-12-29T01:42:47;2.70;99.90
46085;DHT22;31823;47.032;8.310;2022-12-29T01:45:14;2.80;99.90
46085;DHT22;31823;47.032;8.310;2022-12-29T01:47:50;2.80;99.90
46085;DHT22;31823;47.032;8.310;2022-12-29T01:55:24;3.00;99.90
46085;DHT22;31823;47.032;8.310;2022-12-29T01:57:53;3.10;99.90
46085;DHT22;31823;47.032;8.310;2022-12-29T02:00:20;3.30;99.90
46085;DHT22;31823;47.032;8.310;2022-12-29T02:02:49;3.30;99.90
46085;DHT22;31823;47.032;8.310;2022-12-29T02:05:40;3.10;99.90
46085;DHT22;31823;47.032;8.310;2022-12-29T02:08:07;2.90;99.90
46085;DHT22;31823;47.032;8.310;2022-12-29T02:10:35;2.70;99.90
46085;DHT22;31823;47.032;8.310;2022-12-29T02:13:01;2.60;99.90
46085;DHT22;31823;47.032;8.310;2022-12-29T02:16:09;2.70;99.90
46085;DHT22;31823;47.032;8.310;2022-12-29T02:18:52;2.80;99.90
46085;DHT22;31823;47.032;8.310;2022-12-29T02:21:45;2.90;99.90
46085;DHT22;31823;47.032;8.310;2022-12-29T02:24:46;2.90;99.90
46085;DHT22;31823;47.032;8.310;2022-12-29T02:27:50;3.00;99.90
46085;DHT22;31823;47.032;8.310;2022-12-29T02:30:50;3.10;99.90
46085;DHT22;31823;47.032;8.310;2022-12-29T02:41:33;2.90;99.90
46085;DHT22;31823;47.032;8.310;2022-12-29T02:44:22;2.70;99.90
46085;DHT22;31823;47.032;8.310;2022-12-29T02:47:05;2.70;99.90
46085;DHT22;31823;47.032;8.310;2022-12-29T02:49:49;2.80;99.90
46085;DHT22;31823;47.032;8.310;2022-12-29T02:52:25;2.90;99.90
46085;DHT22;31823;47.032;8.310;2022-12-29T02:54:54;3.00;99.90
46085;DHT22;31823;47.032;8.310;2022-12-29T02:59:51;3.20;99.90
46085;DHT22;31823;47.032;8.310;2022-12-29T03:10:37;3.70;99.90
46085;DHT22;31823;47.032;8.310;2022-12-29T03:16:28;3.10;99.90
46085;DHT22;31823;47.032;8.310;2022-12-29T03:19:09;3.00;99.90
46085;DHT22;31823;47.032;8.310;2022-12-29T03:21:43;3.00;99.90
46085;DHT22;31823;47.032;8.310;2022-12-29T03:24:31;3.10;99.90
46085;DHT22;31823;47.032;8.310;2022-12-29T03:27:03;3.20;99.90
46085;DHT22;31823;47.032;8.310;2022-12-29T03:29:31;3.30;99.90
46085;DHT22;31823;47.032;8.310;2022-12-29T03:31:59;3.30;99.90
46085;DHT22;31823;47.032;8.310;2022-12-29T03:34:26;3.30;99.90
46085;DHT22;31823;47.032;8.310;2022-12-29T03:37:00;3.30;99.90
46085;DHT22;31823;47.032;8.310;2022-12-29T03:39:26;3.30;99.90
46085;DHT22;31823;47.032;8.310;2022-12-29T03:41:59;3.30;99.90
46085;DHT22;31823;47.032;8.310;2022-12-29T03:44:37;3.30;99.90
46085;DHT22;31823;47.032;8.310;2022-12-29T03:47:05;3.30;99.90
46085;DHT22;31823;47.032;8.310;2022-12-29T03:49:31;3.30;99.90
46085;DHT22;31823;47.032;8.310;2022-12-29T03:51:56;3.20;99.90
46085;DHT22;31823;47.032;8.310;2022-12-29T03:54:22;3.30;99.90
46085;DHT22;31823;47.032;8.310;2022-12-29T03:56:48;3.30;99.90
46085;DHT22;31823;47.032;8.310;2022-12-29T03:59:13;3.40;99.90
46085;DHT22;31823;47.032;8.310;2022-12-29T04:01:39;3.30;99.90
46085;DHT22;31823;47.032;8.310;2022-12-29T04:04:04;3.30;99.90
46085;DHT22;31823;47.032;8.310;2022-12-29T04:06:30;3.30;99.90
46085;DHT22;31823;47.032;8.310;2022-12-29T04:08:55;3.40;99.90
46085;DHT22;31823;47.032;8.310;2022-12-29T04:11:21;3.40;99.90
46085;DHT22;31823;47.032;8.310;2022-12-29T04:13:47;3.50;99.90
46085;DHT22;31823;47.032;8.310;2022-12-29T04:16:12;3.50;99.90
46085;DHT22;31823;47.032;8.310;2022-12-29T04:18:38;3.50;99.90
46085;DHT22;31823;47.032;8.310;2022-12-29T04:21:04;3.60;99.90
46085;DHT22;31823;47.032;8.310;2022-12-29T04:23:36;3.60;99.90
46085;DHT22;31823;47.032;8.310;2022-12-29T04:26:02;3.60;99.90
46085;DHT22;31823;47.032;8.310;2022-12-29T04:28:28;3.50;99.90
46085;DHT22;31823;47.032;8.310;2022-12-29T04:30:53;3.30;99.90
46085;DHT22;31823;47.032;8.310;2022-12-29T04:33:20;3.20;99.90
46085;DHT22;31823;47.032;8.310;2022-12-29T04:35:46;3.30;99.90
46085;DHT22;31823;47.032;8.310;2022-12-29T04:38:12;3.30;99.90
46085;DHT22;31823;47.032;8.310;2022-12-29T04:40:39;3.30;99.90
46085;DHT22;31823;47.032;8.310;2022-12-29T04:43:05;3.30;99.90
46085;DHT22;31823;47.032;8.310;2022-12-29T04:45:31;3.30;99.90
46085;DHT22;31823;47.032;8.310;2022-12-29T04:47:56;3.40;99.90
46085;DHT22;31823;47.032;8.310;2022-12-29T04:50:22;3.40;99.90
46085;DHT22;31823;47.032;8.310;2022-12-29T04:52:48;3.30;99.90
46085;DHT22;31823;47.032;8.310;2022-12-29T04:55:13;3.20;99.90
46085;DHT22;31823;47.032;8.310;2022-12-29T04:57:42;3.20;99.90
46085;DHT22;31823;47.032;8.310;2022-12-29T05:00:08;3.10;99.90
46085;DHT22;31823;47.032;8.310;2022-12-29T05:02:35;3.00;99.90
46085;DHT22;31823;47.032;8.310;2022-12-29T05:05:01;3.10;99.90
46085;DHT22;31823;47.032;8.310;2022-12-29T05:07:26;3.10;99.90
46085;DHT22;31823;47.032;8.310;2022-12-29T05:09:52;3.10;99.90
46085;DHT22;31823;47.032;8.310;2022-12-29T05:12:17;3.00;99.90
46085;DHT22;31823;47.032;8.310;2022-12-29T05:14:43;3.00;99.90
46085;DHT22;31823;47.032;8.310;2022-12-29T05:17:08;3.00;99.90
46085;DHT22;31823;47.032;8.310;2022-12-29T05:19:34;3.10;99.90
46085;DHT22;31823;47.032;8.310;2022-12-29T05:22:02;3.10;99.90
46085;DHT22;31823;47.032;8.310;2022-12-29T05:24:28;3.10;99.90
46085;DHT22;31823;47.032;8.310;2022-12-29T05:26:53;3.20;99.90
46085;DHT22;31823;47.032;8.310;2022-12-29T05:29:19;3.20;99.90
46085;DHT22;31823;47.032;8.310;2022-12-29T05:31:45;3.20;99.90
46085;DHT22;31823;47.032;8.310;2022-12-29T05:34:13;3.30;99.90
46085;DHT22;31823;47.032;8.310;2022-12-29T05:36:39;3.30;99.90
46085;DHT22;31823;47.032;8.310;2022-12-29T05:39:05;3.30;99.90
46085;DHT22;31823;47.032;8.310;2022-12-29T05:41:33;3.30;99.90
46085;DHT22;31823;47.032;8.310;2022-12-29T05:43:58;3.30;99.90
46085;DHT22;31823;47.032;8.310;2022-12-29T05:46:24;3.20;99.90
46085;DHT22;31823;47.032;8.310;2022-12-29T05:48:49;3.20;99.90
46085;DHT22;31823;47.032;8.310;2022-12-29T05:51:15;3.10;99.90
46085;DHT22;31823;47.032;8.310;2022-12-29T05:53:41;3.20;99.90
46085;DHT22;31823;47.032;8.310;2022-12-29T05:56:06;3.10;99.90
46085;DHT22;31823;47.032;8.310;2022-12-29T05:58:33;3.10;99.90
46085;DHT22;31823;47.032;8.310;2022-12-29T06:00:58;3.20;99.90
46085;DHT22;31823;47.032;8.310;2022-12-29T06:03:24;3.20;99.90
46085;DHT22;31823;47.032;8.310;2022-12-29T06:05:49;3.20;99.90
46085;DHT22;31823;47.032;8.310;2022-12-29T06:08:15;3.30;99.90
46085;DHT22;31823;47.032;8.310;2022-12-29T06:10:40;3.40;99.90
46085;DHT22;31823;47.032;8.310;2022-12-29T06:13:06;3.40;99.90
46085;DHT22;31823;47.032;8.310;2022-12-29T06:15:33;3.40;99.90
46085;DHT22;31823;47.032;8.310;2022-12-29T06:17:58;3.40;99.90
46085;DHT22;31823;47.032;8.310;2022-12-29T06:20:24;3.40;99.90
46085;DHT22;31823;47.032;8.310;2022-12-29T06:22:50;3.40;99.90
46085;DHT22;31823;47.032;8.310;2022-12-29T06:25:16;3.40;99.90
46085;DHT22;31823;47.032;8.310;2022-12-29T06:27:42;3.40;99.90
46085;DHT22;31823;47.032;8.310;2022-12-29T06:30:08;3.40;99.90
46085;DHT22;31823;47.032;8.310;2022-12-29T06:32:35;3.40;99.90
46085;DHT22;31823;47.032;8.310;2022-12-29T06:35:01;3.40;99.90
46085;DHT22;31823;47.032;8.310;2022-12-29T06:37:26;3.40;99.90
46085;DHT22;31823;47.032;8.310;2022-12-29T06:39:52;3.40;99.90
46085;DHT22;31823;47.032;8.310;2022-12-29T06:42:18;3.40;99.90
46085;DHT22;31823;47.032;8.310;2022-12-29T06:44:43;3.20;99.90
46085;DHT22;31823;47.032;8.310;2022-12-29T06:47:09;3.20;99.90
46085;DHT22;31823;47.032;8.310;2022-12-29T06:49:35;3.30;99.90
46085;DHT22;31823;47.032;8.310;2022-12-29T06:52:00;3.40;99.90
46085;DHT22;31823;47.032;8.310;2022-12-29T06:54:29;3.40;99.90
46085;DHT22;31823;47.032;8.310;2022-12-29T06:56:55;3.40;99.90
46085;DHT22;31823;47.032;8.310;2022-12-29T06:59:20;3.50;99.90
46085;DHT22;31823;47.032;8.310;2022-12-29T07:01:46;3.50;99.90
46085;DHT22;31823;47.032;8.310;2022-12-29T07:04:12;3.50;99.90
46085;DHT22;31823;47.032;8.310;2022-12-29T07:06:37;3.50;99.90
46085;DHT22;31823;47.032;8.310;2022-12-29T07:09:03;3.60;99.90
46085;DHT22;31823;47.032;8.310;2022-12-29T07:11:29;3.60;99.90
46085;DHT22;31823;47.032;8.310;2022-12-29T07:13:55;3.60;99.90
46085;DHT22;31823;47.032;8.310;2022-12-29T07:16:21;3.60;99.90
46085;DHT22;31823;47.032;8.310;2022-12-29T07:18:47;3.60;99.90
46085;DHT22;31823;47.032;8.310;2022-12-29T07:21:12;3.70;99.90
46085;DHT22;31823;47.032;8.310;2022-12-29T07:23:38;3.70;99.90
46085;DHT22;31823;47.032;8.310;2022-12-29T07:26:05;3.60;99.90
46085;DHT22;31823;47.032;8.310;2022-12-29T07:28:32;3.80;99.90
46085;DHT22;31823;47.032;8.310;2022-12-29T07:30:59;3.70;99.90
46085;DHT22;31823;47.032;8.310;2022-12-29T07:33:25;3.70;99.90
46085;DHT22;31823;47.032;8.310;2022-12-29T07:35:50;3.70;99.90
46085;DHT22;31823;47.032;8.310;2022-12-29T07:38:16;3.70;99.90
46085;DHT22;31823;47.032;8.310;2022-12-29T07:40:42;3.80;99.90
46085;DHT22;31823;47.032;8.310;2022-12-29T07:43:08;3.70;99.90
46085;DHT22;31823;47.032;8.310;2022-12-29T07:45:34;3.60;99.90
46085;DHT22;31823;47.032;8.310;2022-12-29T07:47:59;3.60;99.90
46085;DHT22;31823;47.032;8.310;2022-12-29T07:50:25;3.60;99.90
46085;DHT22;31823;47.032;8.310;2022-12-29T07:52:51;3.70;99.90
46085;DHT22;31823;47.032;8.310;2022-12-29T07:55:16;3.70;99.90
46085;DHT22;31823;47.032;8.310;2022-12-29T07:57:42;3.80;99.90
46085;DHT22;31823;47.032;8.310;2022-12-29T08:00:08;3.90;99.90
46085;DHT22;31823;47.032;8.310;2022-12-29T08:02:35;3.90;99.90
46085;DHT22;31823;47.032;8.310;2022-12-29T08:05:00;4.00;99.90
46085;DHT22;31823;47.032;8.310;2022-12-29T08:07:26;4.00;99.90
46085;DHT22;31823;47.032;8.310;2022-12-29T08:09:52;4.10;99.90
46085;DHT22;31823;47.032;8.310;2022-12-29T08:12:17;4.10;99.90
46085;DHT22;31823;47.032;8.310;2022-12-29T08:14:43;4.30;99.90
46085;DHT22;31823;47.032;8.310;2022-12-29T08:17:09;4.50;99.90
46085;DHT22;31823;47.032;8.310;2022-12-29T08:19:35;4.80;99.90
46085;DHT22;31823;47.032;8.310;2022-12-29T08:22:01;4.70;99.90
46085;DHT22;31823;47.032;8.310;2022-12-29T08:24:26;4.50;99.90
46085;DHT22;31823;47.032;8.310;2022-12-29T08:26:52;4.40;99.90
46085;DHT22;31823;47.032;8.310;2022-12-29T08:29:18;4.40;99.90
46085;DHT22;31823;47.032;8.310;2022-12-29T08:31:43;4.40;99.90
46085;DHT22;31823;47.032;8.310;2022-12-29T08:34:09;4.40;99.90
46085;DHT22;31823;47.032;8.310;2022-12-29T08:36:34;4.40;99.90
46085;DHT22;31823;47.032;8.310;2022-12-29T08:39:00;4.40;99.90
46085;DHT22;31823;47.032;8.310;2022-12-29T08:41:26;4.40;99.90
46085;DHT22;31823;47.032;8.310;2022-12-29T08:43:52;4.40;99.90
46085;DHT22;31823;47.032;8.310;2022-12-29T08:46:17;4.40;99.90
46085;DHT22;31823;47.032;8.310;2022-12-29T08:48:43;4.50;99.90
46085;DHT22;31823;47.032;8.310;2022-12-29T08:51:09;4.50;99.90
46085;DHT22;31823;47.032;8.310;2022-12-29T08:53:34;4.50;99.90
46085;DHT22;31823;47.032;8.310;2022-12-29T08:56:01;4.70;99.90
46085;DHT22;31823;47.032;8.310;2022-12-29T08:58:27;4.70;99.90
46085;DHT22;31823;47.032;8.310;2022-12-29T09:00:54;4.70;99.90
46085;DHT22;31823;47.032;8.310;2022-12-29T09:03:20;4.80;99.90
46085;DHT22;31823;47.032;8.310;2022-12-29T09:05:50;4.80;99.90
46085;DHT22;31823;47.032;8.310;2022-12-29T09:08:16;5.00;99.90
46085;DHT22;31823;47.032;8.310;2022-12-29T09:10:42;5.10;99.90
46085;DHT22;31823;47.032;8.310;2022-12-29T09:13:08;5.20;99.90
46085;DHT22;31823;47.032;8.310;2022-12-29T09:15:34;5.30;99.90
46085;DHT22;31823;47.032;8.310;2022-12-29T09:17:59;5.70;99.90
46085;DHT22;31823;47.032;8.310;2022-12-29T09:20:25;6.40;99.90
46085;DHT22;31823;47.032;8.310;2022-12-29T09:22:50;6.30;99.90
46085;DHT22;31823;47.032;8.310;2022-12-29T09:25:16;6.20;99.90
46085;DHT22;31823;47.032;8.310;2022-12-29T09:27:42;6.10;99.90
46085;DHT22;31823;47.032;8.310;2022-12-29T09:30:10;6.10;99.90
46085;DHT22;31823;47.032;8.310;2022-12-29T09:32:37;6.20;99.90
46085;DHT22;31823;47.032;8.310;2022-12-29T09:35:03;6.30;99.90
46085;DHT22;31823;47.032;8.310;2022-12-29T09:37:29;6.40;99.90
46085;DHT22;31823;47.032;8.310;2022-12-29T09:39:55;6.60;99.90
46085;DHT22;31823;47.032;8.310;2022-12-29T09:45:37;6.40;99.90
46085;DHT22;31823;47.032;8.310;2022-12-29T09:48:11;6.40;99.90
46085;DHT22;31823;47.032;8.310;2022-12-29T09:50:40;6.50;99.90
46085;DHT22;31823;47.032;8.310;2022-12-29T09:53:29;6.60;99.90
46085;DHT22;31823;47.032;8.310;2022-12-29T09:56:00;6.50;99.90
46085;DHT22;31823;47.032;8.310;2022-12-29T09:58:34;6.50;99.90
46085;DHT22;31823;47.032;8.310;2022-12-29T10:03:49;6.50;99.90
46085;DHT22;31823;47.032;8.310;2022-12-29T10:06:42;6.70;99.90
46085;DHT22;31823;47.032;8.310;2022-12-29T10:09:31;6.80;99.90
46085;DHT22;31823;47.032;8.310;2022-12-29T10:20:34;7.70;99.90
46085;DHT22;31823;47.032;8.310;2022-12-29T10:25:47;7.60;99.90
46085;DHT22;31823;47.032;8.310;2022-12-29T10:28:26;7.50;99.90
46085;DHT22;31823;47.032;8.310;2022-12-29T10:30:56;7.60;99.90
46085;DHT22;31823;47.032;8.310;2022-12-29T10:33:30;7.60;99.90
46085;DHT22;31823;47.032;8.310;2022-12-29T10:35:58;7.60;99.90
46085;DHT22;31823;47.032;8.310;2022-12-29T10:38:38;7.60;99.90
46085;DHT22;31823;47.032;8.310;2022-12-29T10:41:20;7.60;99.90
46085;DHT22;31823;47.032;8.310;2022-12-29T10:43:49;7.60;99.90
46085;DHT22;31823;47.032;8.310;2022-12-29T10:46:21;7.50;99.90
46085;DHT22;31823;47.032;8.310;2022-12-29T10:48:48;7.50;99.90
46085;DHT22;31823;47.032;8.310;2022-12-29T10:51:38;7.50;99.90
46085;DHT22;31823;47.032;8.310;2022-12-29T10:54:28;7.50;99.90
46085;DHT22;31823;47.032;8.310;2022-12-29T10:57:08;7.60;99.90
46085;DHT22;31823;47.032;8.310;2022-12-29T10:59:37;7.70;99.90
46085;DHT22;31823;47.032;8.310;2022-12-29T11:07:19;7.90;99.90
46085;DHT22;31823;47.032;8.310;2022-12-29T11:09:46;8.00;99.90
46085;DHT22;31823;47.032;8.310;2022-12-29T11:17:46;8.30;99.90
46085;DHT22;31823;47.032;8.310;2022-12-29T11:20:33;8.50;99.90
46085;DHT22;31823;47.032;8.310;2022-12-29T11:22:59;8.90;99.90
46085;DHT22;31823;47.032;8.310;2022-12-29T11:25:25;8.60;99.90
46085;DHT22;31823;47.032;8.310;2022-12-29T11:28:02;8.50;99.90
46085;DHT22;31823;47.032;8.310;2022-12-29T11:30:30;8.50;99.90
46085;DHT22;31823;47.032;8.310;2022-12-29T11:32:57;8.60;99.90
46085;DHT22;31823;47.032;8.310;2022-12-29T11:35:41;8.90;99.90
46085;DHT22;31823;47.032;8.310;2022-12-29T11:38:20;9.60;99.90
46085;DHT22;31823;47.032;8.310;2022-12-29T11:40:46;9.30;99.90
46085;DHT22;31823;47.032;8.310;2022-12-29T11:45:55;8.80;99.90
46085;DHT22;31823;47.032;8.310;2022-12-29T11:48:21;8.70;99.90
46085;DHT22;31823;47.032;8.310;2022-12-29T11:50:53;8.50;99.90
46085;DHT22;31823;47.032;8.310;2022-12-29T11:53:39;8.50;99.90
46085;DHT22;31823;47.032;8.310;2022-12-29T11:56:14;8.60;99.90
46085;DHT22;31823;47.032;8.310;2022-12-29T11:58:40;8.90;99.90
46085;DHT22;31823;47.032;8.310;2022-12-29T12:01:07;9.00;99.90
46085;DHT22;31823;47.032;8.310;2022-12-29T12:03:38;9.00;99.90
46085;DHT22;31823;47.032;8.310;2022-12-29T12:06:07;8.90;99.90
46085;DHT22;31823;47.032;8.310;2022-12-29T12:08:55;9.00;99.90
46085;DHT22;31823;47.032;8.310;2022-12-29T12:11:22;9.20;99.90
46085;DHT22;31823;47.032;8.310;2022-12-29T12:16:43;9.10;99.90
46085;DHT22;31823;47.032;8.310;2022-12-29T12:19:24;9.00;99.90
46085;DHT22;31823;47.032;8.310;2022-12-29T12:22:03;9.10;99.90
46085;DHT22;31823;47.032;8.310;2022-12-29T12:25:17;9.20;99.90
46085;DHT22;31823;47.032;8.310;2022-12-29T12:30:21;9.30;99.90
46085;DHT22;31823;47.032;8.310;2022-12-29T12:35:53;9.30;99.90
46085;DHT22;31823;47.032;8.310;2022-12-29T12:38:29;9.50;99.90
46085;DHT22;31823;47.032;8.310;2022-12-29T12:44:12;9.60;99.90
46085;DHT22;31823;47.032;8.310;2022-12-29T12:52:21;10.10;99.90
46085;DHT22;31823;47.032;8.310;2022-12-29T12:55:03;10.10;99.90
46085;DHT22;31823;47.032;8.310;2022-12-29T12:57:56;10.40;99.90
46085;DHT22;31823;47.032;8.310;2022-12-29T13:00:24;10.60;99.90
46085;DHT22;31823;47.032;8.310;2022-12-29T13:03:05;10.80;99.90
46085;DHT22;31823;47.032;8.310;2022-12-29T13:05:47;11.10;99.90
46085;DHT22;31823;47.032;8.310;2022-12-29T13:11:04;10.90;99.90
46085;DHT22;31823;47.032;8.310;2022-12-29T13:13:59;11.30;99.90
46085;DHT22;31823;47.032;8.310;2022-12-29T13:19:33;11.80;99.90
46085;DHT22;31823;47.032;8.310;2022-12-29T13:30:26;10.00;99.90
46085;DHT22;31823;47.032;8.310;2022-12-29T13:36:01;9.80;99.90
46085;DHT22;31823;47.032;8.310;2022-12-29T13:41:00;9.70;99.90
46085;DHT22;31823;47.032;8.310;2022-12-29T13:43:29;9.70;99.90
46085;DHT22;31823;47.032;8.310;2022-12-29T13:46:12;9.60;99.90
46085;DHT22;31823;47.032;8.310;2022-12-29T13:48:59;9.50;99.90
46085;DHT22;31823;47.032;8.310;2022-12-29T13:51:27;9.40;99.90
46085;DHT22;31823;47.032;8.310;2022-12-29T13:56:42;9.20;99.90
46085;DHT22;31823;47.032;8.310;2022-12-29T13:59:40;9.10;99.90
46085;DHT22;31823;47.032;8.310;2022-12-29T14:02:31;9.10;99.90
46085;DHT22;31823;47.032;8.310;2022-12-29T14:05:04;9.00;99.90
46085;DHT22;31823;47.032;8.310;2022-12-29T14:07:36;9.10;99.90
46085;DHT22;31823;47.032;8.310;2022-12-29T14:10:03;9.00;99.90
46085;DHT22;31823;47.032;8.310;2022-12-29T14:12:30;8.80;99.90
46085;DHT22;31823;47.032;8.310;2022-12-29T14:17:37;9.10;99.90
46085;DHT22;31823;47.032;8.310;2022-12-29T14:20:15;9.00;99.90
46085;DHT22;31823;47.032;8.310;2022-12-29T14:22:57;9.00;99.90
46085;DHT22;31823;47.032;8.310;2022-12-29T14:28:29;8.80;99.90
46085;DHT22;31823;47.032;8.310;2022-12-29T14:30:59;8.70;99.90
46085;DHT22;31823;47.032;8.310;2022-12-29T14:33:27;8.50;99.90
46085;DHT22;31823;47.032;8.310;2022-12-29T14:35:54;8.50;99.90
46085;DHT22;31823;47.032;8.310;2022-12-29T14:38:23;8.60;99.90
46085;DHT22;31823;47.032;8.310;2022-12-29T14:40:49;8.70;99.90
46085;DHT22;31823;47.032;8.310;2022-12-29T14:43:25;8.80;99.90
46085;DHT22;31823;47.032;8.310;2022-12-29T14:45:57;8.90;99.90
46085;DHT22;31823;47.032;8.310;2022-12-29T14:50:49;8.80;99.90
46085;DHT22;31823;47.032;8.310;2022-12-29T14:56:13;8.70;99.90
46085;DHT22;31823;47.032;8.310;2022-12-29T14:59:01;8.50;99.90
46085;DHT22;31823;47.032;8.310;2022-12-29T15:01:45;8.50;99.90
46085;DHT22;31823;47.032;8.310;2022-12-29T15:04:34;8.20;99.90
46085;DHT22;31823;47.032;8.310;2022-12-29T15:07:01;8.20;99.90
46085;DHT22;31823;47.032;8.310;2022-12-29T15:09:42;8.10;99.90
46085;DHT22;31823;47.032;8.310;2022-12-29T15:12:15;8.10;99.90
46085;DHT22;31823;47.032;8.310;2022-12-29T15:14:55;8.00;99.90
46085;DHT22;31823;47.032;8.310;2022-12-29T15:17:33;7.90;99.90
46085;DHT22;31823;47.032;8.310;2022-12-29T15:20:14;7.80;99.90
46085;DHT22;31823;47.032;8.310;2022-12-29T15:22:44;7.70;99.90
46085;DHT22;31823;47.032;8.310;2022-12-29T15:25:15;7.70;99.90
46085;DHT22;31823;47.032;8.310;2022-12-29T15:27:41;7.70;99.90
46085;DHT22;31823;47.032;8.310;2022-12-29T15:30:12;7.70;99.90
46085;DHT22;31823;47.032;8.310;2022-12-29T15:32:42;7.70;99.90
46085;DHT22;31823;47.032;8.310;2022-12-29T15:35:30;7.60;99.90
46085;DHT22;31823;47.032;8.310;2022-12-29T15:37:56;7.60;99.90
46085;DHT22;31823;47.032;8.310;2022-12-29T15:40:28;7.50;99.90
46085;DHT22;31823;47.032;8.310;2022-12-29T15:43:15;7.50;99.90
46085;DHT22;31823;47.032;8.310;2022-12-29T15:45:44;7.40;99.90
46085;DHT22;31823;47.032;8.310;2022-12-29T15:48:21;7.40;99.90
46085;DHT22;31823;47.032;8.310;2022-12-29T15:50:49;7.40;99.90
46085;DHT22;31823;47.032;8.310;2022-12-29T15:53:23;7.40;99.90
46085;DHT22;31823;47.032;8.310;2022-12-29T15:55:56;7.40;99.90
46085;DHT22;31823;47.032;8.310;2022-12-29T15:58:25;7.30;99.90
46085;DHT22;31823;47.032;8.310;2022-12-29T16:00:58;7.20;99.90
46085;DHT22;31823;47.032;8.310;2022-12-29T16:03:26;7.10;99.90
46085;DHT22;31823;47.032;8.310;2022-12-29T16:06:06;7.10;99.90
46085;DHT22;31823;47.032;8.310;2022-12-29T16:08:37;7.00;99.90
46085;DHT22;31823;47.032;8.310;2022-12-29T16:11:22;7.00;99.90
46085;DHT22;31823;47.032;8.310;2022-12-29T16:13:50;7.00;99.90
46085;DHT22;31823;47.032;8.310;2022-12-29T16:16:40;7.00;99.90
46085;DHT22;31823;47.032;8.310;2022-12-29T16:19:26;7.10;99.90
46085;DHT22;31823;47.032;8.310;2022-12-29T16:21:54;7.00;99.90
46085;DHT22;31823;47.032;8.310;2022-12-29T16:24:23;6.90;99.90
46085;DHT22;31823;47.032;8.310;2022-12-29T16:27:06;6.90;99.90
46085;DHT22;31823;47.032;8.310;2022-12-29T16:29:32;6.80;99.90
46085;DHT22;31823;47.032;8.310;2022-12-29T16:31:59;6.70;99.90
46085;DHT22;31823;47.032;8.310;2022-12-29T16:37:27;6.60;99.90
46085;DHT22;31823;47.032;8.310;2022-12-29T16:39:53;6.60;99.90
46085;DHT22;31823;47.032;8.310;2022-12-29T16:50:30;6.50;99.90
46085;DHT22;31823;47.032;8.310;2022-12-29T16:52:55;6.50;99.90
46085;DHT22;31823;47.032;8.310;2022-12-29T16:55:21;6.50;99.90
46085;DHT22;31823;47.032;8.310;2022-12-29T16:57:48;6.50;99.90
46085;DHT22;31823;47.032;8.310;2022-12-29T17:00:22;6.50;99.90
46085;DHT22;31823;47.032;8.310;2022-12-29T17:02:49;6.50;99.90
46085;DHT22;31823;47.032;8.310;2022-12-29T17:05:17;6.50;99.90
46085;DHT22;31823;47.032;8.310;2022-12-29T17:07:44;6.50;99.90
46085;DHT22;31823;47.032;8.310;2022-12-29T17:10:10;6.50;99.90
46085;DHT22;31823;47.032;8.310;2022-12-29T17:12:38;6.50;99.90
46085;DHT22;31823;47.032;8.310;2022-12-29T17:15:14;6.50;99.90
46085;DHT22;31823;47.032;8.310;2022-12-29T17:17:47;6.50;99.90
46085;DHT22;31823;47.032;8.310;2022-12-29T17:20:28;6.50;99.90
46085;DHT22;31823;47.032;8.310;2022-12-29T17:22:54;6.50;99.90
46085;DHT22;31823;47.032;8.310;2022-12-29T17:25:28;6.50;99.90
46085;DHT22;31823;47.032;8.310;2022-12-29T17:28:02;6.60;99.90
46085;DHT22;31823;47.032;8.310;2022-12-29T17:30:49;6.60;99.90
46085;DHT22;31823;47.032;8.310;2022-12-29T17:33:17;6.60;99.90
46085;DHT22;31823;47.032;8.310;2022-12-29T17:35:43;6.60;99.90
46085;DHT22;31823;47.032;8.310;2022-12-29T17:38:22;6.70;99.90
46085;DHT22;31823;47.032;8.310;2022-12-29T17:40:50;6.80;99.90
46085;DHT22;31823;47.032;8.310;2022-12-29T17:43:16;7.00;99.90
46085;DHT22;31823;47.032;8.310;2022-12-29T17:45:43;7.00;99.90
46085;DHT22;31823;47.032;8.310;2022-12-29T17:48:14;6.80;99.90
46085;DHT22;31823;47.032;8.310;2022-12-29T17:50:40;6.60;99.90
46085;DHT22;31823;47.032;8.310;2022-12-29T17:53:11;6.70;99.90
46085;DHT22;31823;47.032;8.310;2022-12-29T17:55:37;6.70;99.90
46085;DHT22;31823;47.032;8.310;2022-12-29T17:58:25;6.60;99.90
46085;DHT22;31823;47.032;8.310;2022-12-29T18:00:56;6.70;99.90
46085;DHT22;31823;47.032;8.310;2022-12-29T18:03:37;6.70;99.90
46085;DHT22;31823;47.032;8.310;2022-12-29T18:06:03;6.60;99.90
46085;DHT22;31823;47.032;8.310;2022-12-29T18:08:31;6.60;99.90